Time;durP1;ratioP1;P1;durP2;ratioP2;P2;SDS_P1;SDS_P2;PMS_P1;PMS_P2;Temp;Humidity;BMP_temperature;BMP_pressure;BME280_temperature;BME280_humidity;BME280_pressure;Samples;Min_cycle;Max_cycle;Signal;HPM_P1;HPM_P2
2021/04/19 00:01:57;23834.00;0.08;41.91;0.00;0.00;0.62;;;;;12.10;1.00;;;;;;2256712;61;1554;-87
2021/04/19 00:04:24;7583.00;0.03;13.76;0.00;0.00;0.62;;;;;12.30;1.00;;;;;;2257606;61;974;-87
2021/04/19 00:06:50;0.00;0.00;0.62;0.00;0.00;0.62;;;;;12.60;1.00;;;;;;2261467;61;945;-87
2021/04/19 00:09:17;309482.00;1.03;534.22;102137.00;0.34;177.26;;;;;13.10;1.00;;;;;;2261433;61;1000;-88
2021/04/19 00:11:43;158673.00;0.53;274.75;10522.00;0.04;18.85;;;;;13.30;1.00;;;;;;2265123;61;1442;-88
2021/04/19 00:14:10;73067.00;0.24;127.06;0.00;0.00;0.62;;;;;12.70;1.00;;;;;;2264584;61;946;-87
2021/04/19 00:16:36;121840.00;0.41;211.26;0.00;0.00;0.62;;;;;12.50;1.00;;;;;;2260579;61;984;-88
2021/04/19 00:19:04;15073.00;0.05;26.74;0.00;0.00;0.62;;;;;12.50;1.00;;;;;;2248607;61;1018;-88
2021/04/19 00:21:32;201382.00;0.67;348.30;0.00;0.00;0.62;;;;;12.50;1.00;;;;;;2248583;61;2010;-87
2021/04/19 00:23:58;11151.00;0.04;19.94;0.00;0.00;0.62;;;;;11.90;1.00;;;;;;2248579;61;970;-87
2021/04/19 00:26:24;100484.00;0.33;174.41;29304.00;0.10;51.38;;;;;11.90;1.00;;;;;;2248598;61;980;-86
2021/04/19 00:28:51;64356.00;0.21;112.01;0.00;0.00;0.62;;;;;11.70;1.00;;;;;;2248604;61;993;-87
2021/04/19 00:31:19;47400.00;0.16;82.69;0.00;0.00;0.62;;;;;11.80;1.00;;;;;;2242023;61;1478;-87
2021/04/19 00:33:46;0.00;0.00;0.62;0.00;0.00;0.62;;;;;11.80;1.00;;;;;;2249570;61;1017;-87
2021/04/19 00:36:13;176701.00;0.59;305.81;0.00;0.00;0.62;;;;;11.60;1.00;;;;;;2257685;61;1167;-86
2021/04/19 00:38:40;44960.00;0.15;78.47;0.00;0.00;0.62;;;;;11.70;1.00;;;;;;2261314;61;970;-87
2021/04/19 00:41:08;135807.00;0.45;235.34;0.00;0.00;0.62;;;;;12.00;1.00;;;;;;2265013;61;1986;-87
2021/04/19 00:43:36;8228.00;0.03;14.88;0.00;0.00;0.62;;;;;12.00;1.00;;;;;;2265028;61;920;-87
2021/04/19 00:46:03;83893.00;0.28;145.76;0.00;0.00;0.62;;;;;12.20;1.00;;;;;;2265031;61;907;-87
2021/04/19 00:48:31;56132.00;0.19;97.79;0.00;0.00;0.62;;;;;12.20;1.00;;;;;;2261297;61;1015;-87
2021/04/19 00:50:58;69479.00;0.23;120.86;0.00;0.00;0.62;;;;;12.30;1.00;;;;;;2261205;61;1436;-88
2021/04/19 00:53:27;102380.00;0.34;177.68;0.00;0.00;0.62;;;;;12.50;1.00;;;;;;2261294;61;990;-86
2021/04/19 00:55:55;22309.00;0.07;39.27;0.00;0.00;0.62;;;;;12.20;1.00;;;;;;2264898;61;970;-88
2021/04/19 00:58:27;157828.00;0.53;273.30;30712.00;0.10;53.82;;;;;12.20;1.00;;;;;;2261266;61;1023;-87
2021/04/19 01:00:53;32541.00;0.11;56.98;0.00;0.00;0.62;;;;;12.20;1.00;;;;;;2261172;61;1914;-88
2021/04/19 01:03:20;103961.00;0.35;180.41;0.00;0.00;0.62;;;;;12.20;1.00;;;;;;2261216;61;978;-88
2021/04/19 01:05:48;227569.00;0.76;393.37;58451.00;0.19;101.80;;;;;12.50;1.00;;;;;;2264996;61;937;-86
2021/04/19 01:08:15;37203.00;0.12;65.05;0.00;0.00;0.62;;;;;12.80;1.00;;;;;;2261246;61;1059;-89
2021/04/19 01:10:43;223.00;0.00;1.01;0.00;0.00;0.62;;;;;13.10;1.00;;;;;;2261166;61;1462;-89
2021/04/19 01:13:09;68604.00;0.23;119.35;0.00;0.00;0.62;;;;;13.30;1.00;;;;;;2264969;61;932;-88
2021/04/19 01:15:36;0.00;0.00;0.62;0.00;0.00;0.62;;;;;13.50;1.00;;;;;;2261172;61;988;-89
2021/04/19 01:18:03;207284.00;0.69;358.46;20558.00;0.07;36.24;;;;;13.40;1.00;;;;;;2261198;61;1018;-88
2021/04/19 01:20:35;5346.00;0.02;9.89;0.00;0.00;0.62;;;;;13.40;1.00;;;;;;2261140;61;2008;-87
2021/04/19 01:23:02;141431.00;0.47;245.04;9821.00;0.03;17.64;;;;;13.10;1.00;;;;;;2257041;61;995;-88
2021/04/19 01:25:30;33679.00;0.11;58.95;0.00;0.00;0.62;;;;;12.70;1.00;;;;;;2250497;61;1014;-87
2021/04/19 01:27:58;181908.00;0.61;314.78;85821.00;0.29;149.09;;;;;12.30;1.00;;;;;;2252319;61;1411;-88
2021/04/19 01:30:30;296885.00;0.99;512.57;158776.00;0.53;274.93;;;;;11.50;1.00;;;;;;2252353;61;1419;-87
2021/04/19 01:32:56;428797.00;1.43;739.32;97942.00;0.33;170.02;;;;;11.10;1.00;;;;;;2244413;61;1046;-88
2021/04/19 01:35:23;171390.00;0.57;296.66;88552.00;0.30;153.81;;;;;11.10;1.00;;;;;;2244453;61;1115;-87
2021/04/19 01:37:49;300606.00;1.00;518.96;100342.00;0.33;174.16;;;;;11.60;1.00;;;;;;2244364;61;1023;-89
2021/04/19 01:40:18;188247.00;0.63;325.69;86768.00;0.29;150.73;;;;;12.00;1.00;;;;;;2241677;61;1993;-88
2021/04/19 01:42:45;163995.00;0.55;283.92;78280.00;0.26;136.07;;;;;12.60;1.00;;;;;;2240446;62;974;-88
2021/04/19 01:45:13;257213.00;0.86;444.36;83150.00;0.28;144.48;;;;;12.90;1.00;;;;;;2245674;61;1036;-88
2021/04/19 01:47:40;218820.00;0.73;378.31;84759.00;0.28;147.26;;;;;13.30;1.00;;;;;;2244307;61;994;-88
2021/04/19 01:50:11;226665.00;0.76;391.81;80860.00;0.27;140.52;;;;;13.00;1.00;;;;;;2244350;61;1388;-88
2021/04/19 01:52:38;266877.00;0.89;460.97;70320.00;0.23;122.31;;;;;12.10;1.00;;;;;;2244369;61;1039;-88
2021/04/19 01:55:08;287802.00;0.96;496.95;100942.00;0.34;175.20;;;;;12.10;1.00;;;;;;2244332;61;1052;-88
2021/04/19 01:57:39;309467.00;1.03;534.19;68771.00;0.23;119.64;;;;;12.20;1.00;;;;;;2244298;61;980;-88
2021/04/19 02:00:07;539343.00;1.80;929.59;85113.00;0.28;147.87;;;;;12.70;1.00;;;;;;2241803;61;2040;-88
2021/04/19 02:02:44;486850.00;1.62;839.19;81032.00;0.27;140.82;;;;;13.10;1.00;;;;;;2244862;61;1014;-88
2021/04/19 02:05:18;360008.00;1.20;621.06;80762.00;0.27;140.35;;;;;13.30;1.00;;;;;;2243717;61;963;-88
2021/04/19 02:07:52;241926.00;0.81;418.06;86021.00;0.29;149.44;;;;;13.30;1.00;;;;;;2248030;61;1046;-88
2021/04/19 02:10:27;564428.00;1.88;972.84;101636.00;0.34;176.40;;;;;13.50;1.00;;;;;;2241721;61;1489;-88
2021/04/19 02:13:00;193869.00;0.65;335.37;75334.00;0.25;130.98;;;;;13.20;1.00;;;;;;2243370;61;961;-88
2021/04/19 02:15:37;199425.00;0.66;344.93;84645.00;0.28;147.06;;;;;12.90;1.00;;;;;;2252288;61;1044;-88
2021/04/19 02:18:15;187795.00;0.63;324.91;69706.00;0.23;121.25;;;;;13.20;1.00;;;;;;2252322;61;1066;-88
2021/04/19 02:20:46;267437.00;0.89;461.94;91489.00;0.30;158.88;;;;;13.30;1.00;;;;;;2245618;61;2001;-88
2021/04/19 02:23:22;18298.00;0.06;32.32;0.00;0.00;0.62;;;;;12.90;1.00;;;;;;2256373;61;961;-88
2021/04/19 02:25:53;203069.00;0.68;351.21;77502.00;0.26;134.72;;;;;12.60;1.00;;;;;;2262592;61;1027;-87
2021/04/19 02:28:27;197888.00;0.66;342.29;80945.00;0.27;140.67;;;;;12.30;1.00;;;;;;2264729;61;912;-88
2021/04/19 02:31:00;283673.00;0.95;489.85;90338.00;0.30;156.89;;;;;12.00;1.00;;;;;;2260897;61;1326;-88
2021/04/19 02:33:32;174644.00;0.58;302.27;94504.00;0.32;164.08;;;;;11.70;1.00;;;;;;2264279;61;976;-88
2021/04/19 02:36:00;277752.00;0.93;479.67;92157.00;0.31;160.03;;;;;12.00;1.00;;;;;;2257669;61;966;-87
2021/04/19 02:38:30;184528.00;0.62;319.29;73348.00;0.24;127.55;;;;;12.50;1.00;;;;;;2260970;61;962;-88
2021/04/19 02:40:59;288038.00;0.96;497.36;90587.00;0.30;157.32;;;;;12.70;1.00;;;;;;2260097;61;1928;-88
2021/04/19 02:43:27;329920.00;1.10;569.35;106752.00;0.36;185.23;;;;;12.40;1.00;;;;;;2248162;61;976;-88
2021/04/19 02:45:55;398428.00;1.33;687.10;73857.00;0.25;128.42;;;;;11.90;1.00;;;;;;2248127;61;1033;-88
2021/04/19 02:48:24;173771.00;0.58;300.76;95703.00;0.32;166.15;;;;;11.50;1.00;;;;;;2244906;61;996;-88
2021/04/19 02:50:51;301934.00;1.01;521.24;105366.00;0.35;182.83;;;;;10.70;1.00;;;;;;2244176;61;1248;-88
2021/04/19 02:53:20;256694.00;0.86;443.46;89197.00;0.30;154.92;;;;;10.30;1.00;;;;;;2244261;61;1088;-88
2021/04/19 02:55:48;292491.00;0.97;505.01;81839.00;0.27;142.21;;;;;10.10;1.00;;;;;;2244266;61;1034;-88
2021/04/19 02:58:19;243427.00;0.81;420.65;81691.00;0.27;141.96;;;;;9.90;1.00;;;;;;2244898;61;967;-88
2021/04/19 03:00:49;309027.00;1.03;533.44;103473.00;0.34;179.57;;;;;9.90;1.00;;;;;;2250603;61;1910;-89
2021/04/19 03:03:23;355984.00;1.19;614.15;85811.00;0.29;149.07;;;;;10.50;1.00;;;;;;2259281;61;1022;-89
2021/04/19 03:05:51;335580.00;1.12;579.08;92337.00;0.31;160.34;;;;;11.50;1.00;;;;;;2252788;61;952;-88
2021/04/19 03:08:20;248260.00;0.83;428.96;95770.00;0.32;166.27;;;;;12.30;1.00;;;;;;2256157;61;1024;-87
2021/04/19 03:10:54;299198.00;1.00;516.54;90163.00;0.30;156.59;;;;;12.70;1.00;;;;;;2252719;61;1433;-87
2021/04/19 03:13:23;431756.00;1.44;744.41;85320.00;0.28;148.23;;;;;12.80;1.00;;;;;;2256142;61;1022;-87
2021/04/19 03:15:55;339423.00;1.13;585.68;90841.00;0.30;157.76;;;;;12.90;1.00;;;;;;2258095;61;1010;-88
2021/04/19 03:18:24;360327.00;1.20;621.61;89537.00;0.30;155.51;;;;;11.80;1.00;;;;;;2264060;61;971;-87
2021/04/19 03:21:07;477054.00;1.59;822.33;135645.00;0.45;235.06;;;;;11.00;1.00;;;;;;2260711;61;1908;-86
2021/04/19 03:23:38;626811.00;2.09;1080.54;113262.00;0.38;196.46;;;;;11.10;1.00;;;;;;2260789;61;982;-87
2021/04/19 03:26:06;411350.00;1.37;709.32;81782.00;0.27;142.12;;;;;11.60;1.00;;;;;;2260063;61;1043;-88
2021/04/19 03:28:36;461948.00;1.54;796.34;86790.00;0.29;150.76;;;;;12.00;1.00;;;;;;2250144;61;1016;-87
2021/04/19 03:31:07;580926.00;1.94;1001.30;100744.00;0.34;174.86;;;;;12.20;1.00;;;;;;2250127;61;1349;-87
2021/04/19 03:33:38;404827.00;1.35;698.10;84698.00;0.28;147.15;;;;;12.40;1.00;;;;;;2253450;61;1027;-86
2021/04/19 03:36:08;427425.00;1.42;736.96;88669.00;0.30;154.01;;;;;12.50;1.00;;;;;;2250132;61;1018;-87
2021/04/19 03:38:35;465402.00;1.55;802.28;83620.00;0.28;145.29;;;;;12.70;1.00;;;;;;2253369;61;1046;-87
2021/04/19 03:41:03;482467.00;1.61;831.64;90863.00;0.30;157.80;;;;;12.90;1.00;;;;;;2259952;61;1989;-87
2021/04/19 03:43:31;375900.00;1.25;648.38;93016.00;0.31;161.52;;;;;12.90;1.00;;;;;;2261052;61;934;-88
2021/04/19 03:46:03;357165.00;1.19;616.18;90124.00;0.30;156.52;;;;;12.60;1.00;;;;;;2264495;61;1008;-87
2021/04/19 03:48:32;477090.00;1.59;822.39;88927.00;0.30;154.45;;;;;12.50;1.00;;;;;;2259926;61;943;-87
2021/04/19 03:51:04;470825.00;1.57;811.61;125707.00;0.42;217.93;;;;;12.90;1.00;;;;;;2253260;61;1404;-89
2021/04/19 03:53:32;559983.00;1.87;965.17;87414.00;0.29;151.84;;;;;13.30;1.00;;;;;;2259861;61;976;-87
2021/04/19 03:56:01;338242.00;1.13;583.65;96927.00;0.32;168.27;;;;;13.00;1.00;;;;;;2247722;61;989;-87
2021/04/19 03:58:31;476994.00;1.59;822.22;80687.00;0.27;140.22;;;;;12.40;1.00;;;;;;2241469;61;994;-86
2021/04/19 04:01:02;528015.00;1.76;910.07;88144.00;0.29;153.10;;;;;12.10;1.00;;;;;;2247811;61;1983;-88
2021/04/19 04:03:31;374246.00;1.25;645.53;81786.00;0.27;142.12;;;;;12.10;1.00;;;;;;2248011;61;980;-86
2021/04/19 04:08:29;494399.00;1.65;852.18;46992.00;0.16;81.98;;;;;12.80;1.00;;;;;;2266093;61;1391;-89
2021/04/19 04:10:57;449080.00;1.50;774.20;75830.00;0.25;131.83;;;;;12.90;1.00;;;;;;2255915;61;1424;-87
2021/04/19 04:13:23;511830.00;1.71;882.19;82242.00;0.27;142.91;;;;;12.30;1.00;;;;;;2255814;61;959;-86
2021/04/19 04:15:55;568291.00;1.89;979.50;100342.00;0.33;174.16;;;;;11.40;1.00;;;;;;2251899;61;970;-87
2021/04/19 04:18:25;583473.00;1.94;1005.69;53105.00;0.18;92.56;;;;;10.80;1.00;;;;;;2247813;61;981;-87
2021/04/19 04:20:53;436674.00;1.46;752.86;0.00;0.00;0.62;;;;;10.20;1.00;;;;;;2239962;62;2011;-86
2021/04/19 04:23:21;298866.00;1.00;515.97;0.00;0.00;0.62;;;;;10.10;1.00;;;;;;2233245;62;991;-88
2021/04/19 04:25:48;401752.00;1.34;692.82;0.00;0.00;0.62;;;;;10.30;1.00;;;;;;2240113;62;994;-88
2021/04/19 04:28:15;429525.00;1.43;740.57;0.00;0.00;0.62;;;;;10.60;1.00;;;;;;2236637;62;1003;-85
2021/04/19 04:30:42;424287.00;1.41;731.56;69168.00;0.23;120.32;;;;;10.70;1.00;;;;;;2240074;62;1433;-87
2021/04/19 04:33:09;298552.00;1.00;515.43;0.00;0.00;0.62;;;;;10.30;1.00;;;;;;2241488;62;1005;-85
2021/04/19 04:35:38;348099.00;1.16;600.59;8972.00;0.03;16.17;;;;;10.30;1.00;;;;;;2241445;61;1025;-88
2021/04/19 04:38:06;414994.00;1.38;715.58;0.00;0.00;0.62;;;;;10.70;1.00;;;;;;2250493;61;1020;-87
2021/04/19 04:40:34;233450.00;0.78;403.48;0.00;0.00;0.62;;;;;10.40;1.00;;;;;;2260481;61;2000;-86
2021/04/19 04:43:04;348983.00;1.16;602.11;13924.00;0.05;24.75;;;;;10.20;1.00;;;;;;2257314;61;1035;-86
2021/04/19 04:45:31;161965.00;0.54;280.42;0.00;0.00;0.62;;;;;10.40;1.00;;;;;;2260960;61;1030;-87
2021/04/19 04:48:00;337198.00;1.12;581.86;0.00;0.00;0.62;;;;;10.80;1.00;;;;;;2257231;61;955;-86
2021/04/19 04:50:33;206460.00;0.69;357.04;40609.00;0.14;70.94;;;;;11.10;1.00;;;;;;2260996;61;1331;-86
2021/04/19 04:53:07;116358.00;0.39;201.80;0.00;0.00;0.62;;;;;11.10;1.00;;;;;;2257273;61;1015;-86
2021/04/19 04:55:36;225581.00;0.75;389.95;0.00;0.00;0.62;;;;;11.00;1.00;;;;;;2260508;61;968;-87
2021/04/19 04:58:05;113186.00;0.38;196.33;0.00;0.00;0.62;;;;;11.20;1.00;;;;;;2257299;61;1009;-86
2021/04/19 05:00:33;247074.00;0.82;426.92;0.00;0.00;0.62;;;;;11.60;1.00;;;;;;2260491;61;1992;-86
2021/04/19 05:03:02;425386.00;1.42;733.45;23327.00;0.08;41.03;;;;;11.60;1.00;;;;;;2260455;61;1029;-86
2021/04/19 05:05:29;140283.00;0.47;243.06;0.00;0.00;0.62;;;;;11.30;1.00;;;;;;2260516;61;1016;-86
2021/04/19 05:07:58;147125.00;0.49;254.85;0.00;0.00;0.62;;;;;11.00;1.00;;;;;;2260255;61;952;-87
2021/04/19 05:10:26;170419.00;0.57;294.99;0.00;0.00;0.62;;;;;10.80;1.00;;;;;;2260363;61;1298;-86
2021/04/19 05:12:52;56770.00;0.19;98.89;0.00;0.00;0.62;;;;;10.80;1.00;;;;;;2252321;61;983;-86
2021/04/19 05:15:18;175932.00;0.59;304.48;0.00;0.00;0.62;;;;;10.40;1.00;;;;;;2248938;61;1017;-87
2021/04/19 05:17:46;177189.00;0.59;306.65;14045.00;0.05;24.96;;;;;10.40;1.00;;;;;;2245763;61;1015;-86
2021/04/19 05:20:14;142877.00;0.48;247.53;0.00;0.00;0.62;;;;;11.00;1.00;;;;;;2245093;61;1920;-86
2021/04/19 05:22:41;0.00;0.00;0.62;0.00;0.00;0.62;;;;;11.60;1.00;;;;;;2248373;61;1011;-86
2021/04/19 05:25:10;306296.00;1.02;528.74;0.00;0.00;0.62;;;;;11.30;1.00;;;;;;2248931;61;1022;-86
2021/04/19 05:27:38;193051.00;0.64;333.96;31408.00;0.10;55.02;;;;;10.90;1.00;;;;;;2249076;61;940;-86
2021/04/19 05:30:06;82681.00;0.28;143.67;0.00;0.00;0.62;;;;;10.70;1.00;;;;;;2247031;61;1009;-86
2021/04/19 05:32:32;80387.00;0.27;139.71;0.00;0.00;0.62;;;;;10.50;1.00;;;;;;2260250;61;1211;-87
2021/04/19 05:35:01;429855.00;1.43;741.14;0.00;0.00;0.62;;;;;9.90;1.00;;;;;;2253689;61;1036;-86
2021/04/19 05:37:29;88567.00;0.30;153.83;0.00;0.00;0.62;;;;;9.40;1.00;;;;;;2257004;61;994;-86
2021/04/19 05:39:56;36562.00;0.12;63.94;0.00;0.00;0.62;;;;;9.40;1.00;;;;;;2256287;61;939;-87
2021/04/19 05:42:23;164736.00;0.55;285.20;50649.00;0.17;88.31;;;;;9.50;1.00;;;;;;2256021;61;1935;-86
2021/04/19 05:44:50;272052.00;0.91;469.87;20495.00;0.07;36.13;;;;;10.10;1.00;;;;;;2256399;61;1025;-87
2021/04/19 05:47:19;172038.00;0.57;297.78;42727.00;0.14;74.61;;;;;10.80;1.00;;;;;;2252997;61;951;-86
2021/04/19 05:52:13;20098.00;0.07;35.44;0.00;0.00;0.62;;;;;10.90;1.00;;;;;;2266219;61;1426;-86
2021/04/19 05:54:42;103834.00;0.35;180.19;0.00;0.00;0.62;;;;;11.00;1.00;;;;;;2264353;61;935;-86
2021/04/19 05:57:13;42239.00;0.14;73.76;0.00;0.00;0.62;;;;;11.30;1.00;;;;;;2261023;61;933;-85
2021/04/19 05:59:49;185298.00;0.62;320.61;0.00;0.00;0.62;;;;;11.60;1.00;;;;;;2261001;61;1061;-86
2021/04/19 06:02:29;98244.00;0.33;170.54;0.00;0.00;0.62;;;;;11.40;1.00;;;;;;2260152;61;1940;-86
2021/04/19 06:05:02;64365.00;0.21;112.02;0.00;0.00;0.62;;;;;11.10;1.00;;;;;;2250455;61;968;-86
2021/04/19 06:07:40;111686.00;0.37;193.74;0.00;0.00;0.62;;;;;11.00;1.00;;;;;;2253620;61;957;-87
2021/04/19 06:10:14;263862.00;0.88;455.79;0.00;0.00;0.62;;;;;11.10;1.00;;;;;;2260270;61;1395;-86
2021/04/19 06:12:47;65847.00;0.22;114.58;0.00;0.00;0.62;;;;;11.00;1.00;;;;;;2250455;61;959;-87
2021/04/19 06:15:14;164748.00;0.55;285.22;0.00;0.00;0.62;;;;;11.00;1.00;;;;;;2248241;61;1106;-87
2021/04/19 06:17:46;311927.00;1.04;538.42;14256.00;0.05;25.32;;;;;10.90;1.00;;;;;;2248313;61;1024;-88
2021/04/19 06:20:15;607337.00;2.02;1046.89;202738.00;0.68;350.64;;;;;11.30;1.00;;;;;;2248004;61;2022;-86
2021/04/19 06:22:42;199741.00;0.67;345.48;9377.00;0.03;16.87;;;;;11.70;1.00;;;;;;2252253;61;1073;-86
2021/04/19 06:25:12;370425.00;1.23;638.97;26471.00;0.09;46.47;;;;;12.00;1.00;;;;;;2252225;61;1006;-87
2021/04/19 06:27:40;9559.00;0.03;17.19;0.00;0.00;0.62;;;;;12.20;1.00;;;;;;2244229;61;1005;-87
2021/04/19 06:30:18;0.00;0.00;0.62;0.00;0.00;0.62;;;;;12.50;1.00;;;;;;2244250;61;1345;-87
2021/04/19 06:32:48;176413.00;0.59;305.31;31781.00;0.11;55.67;;;;;12.60;1.00;;;;;;2247734;61;1060;-87
2021/04/19 06:35:17;96286.00;0.32;167.16;0.00;0.00;0.62;;;;;12.80;1.00;;;;;;2252825;61;1043;-89
2021/04/19 06:37:48;200574.00;0.67;346.91;0.00;0.00;0.62;;;;;13.10;1.00;;;;;;2250994;61;1001;-87
2021/04/19 06:40:16;205093.00;0.68;354.69;0.00;0.00;0.62;;;;;13.00;1.00;;;;;;2244898;61;2007;-88
2021/04/19 06:42:43;233372.00;0.78;403.35;0.00;0.00;0.62;;;;;13.20;1.00;;;;;;2248056;61;1044;-89
2021/04/19 06:45:15;182289.00;0.61;315.43;0.00;0.00;0.62;;;;;13.30;1.00;;;;;;2250410;61;1044;-88
2021/04/19 06:47:43;25576.00;0.09;44.92;0.00;0.00;0.62;;;;;13.10;1.00;;;;;;2255555;61;1123;-87
2021/04/19 06:50:12;49977.00;0.17;87.15;0.00;0.00;0.62;;;;;13.00;1.00;;;;;;2256180;61;1439;-86
2021/04/19 06:52:39;404104.00;1.35;696.86;38285.00;0.13;66.92;;;;;13.10;1.00;;;;;;2255996;61;976;-87
2021/04/19 06:55:07;54101.00;0.18;94.28;0.00;0.00;0.62;;;;;12.90;1.00;;;;;;2251273;61;981;-87
2021/04/19 06:57:36;49179.00;0.16;85.77;0.00;0.00;0.62;;;;;12.80;1.00;;;;;;2264584;61;1057;-86
2021/04/19 07:00:04;54834.00;0.18;95.55;0.00;0.00;0.62;;;;;13.10;1.00;;;;;;2264485;61;1086;-87
2021/04/19 07:02:34;178572.00;0.60;309.03;0.00;0.00;0.62;;;;;13.30;1.00;;;;;;2260021;61;1930;-86
2021/04/19 07:05:02;55321.00;0.18;96.39;0.00;0.00;0.62;;;;;13.50;1.00;;;;;;2260079;61;1045;-87
2021/04/19 07:07:35;15895.00;0.05;28.16;0.00;0.00;0.62;;;;;13.60;1.00;;;;;;2256868;61;1078;-86
2021/04/19 07:10:04;20525.00;0.07;36.18;0.00;0.00;0.62;;;;;13.70;1.00;;;;;;2256792;61;967;-86
2021/04/19 07:12:33;21829.00;0.07;38.44;0.00;0.00;0.62;;;;;13.90;1.00;;;;;;2260171;61;943;-88
2021/04/19 07:15:05;120124.00;0.40;208.30;0.00;0.00;0.62;;;;;13.80;1.00;;;;;;2252046;61;936;-87
2021/04/19 07:17:32;150804.00;0.50;261.19;0.00;0.00;0.62;;;;;13.60;1.00;;;;;;2243948;61;999;-88
2021/04/19 07:19:59;112237.00;0.37;194.69;0.00;0.00;0.62;;;;;13.20;1.00;;;;;;2245257;61;1017;-87
2021/04/19 07:22:27;382415.00;1.27;659.58;14139.00;0.05;25.12;;;;;13.20;1.00;;;;;;2244061;61;2003;-87
2021/04/19 07:24:55;239080.00;0.80;413.17;0.00;0.00;0.62;;;;;12.50;1.00;;;;;;2244212;61;1004;-87
2021/04/19 07:27:23;156982.00;0.52;271.84;0.00;0.00;0.62;;;;;12.60;1.00;;;;;;2237579;61;1012;-87
2021/04/19 07:29:49;33248.00;0.11;58.20;0.00;0.00;0.62;;;;;13.20;1.00;;;;;;2240124;62;936;-87
2021/04/19 07:32:16;174657.00;0.58;302.29;0.00;0.00;0.62;;;;;13.30;1.00;;;;;;2241628;61;1454;-87
2021/04/19 07:34:42;199407.00;0.66;344.90;0.00;0.00;0.62;;;;;13.50;1.00;;;;;;2243975;62;1067;-88
2021/04/19 07:37:12;394824.00;1.32;680.91;28559.00;0.10;50.09;;;;;13.70;1.00;;;;;;2244037;61;1018;-88
2021/04/19 07:39:42;325756.00;1.09;562.19;0.00;0.00;0.62;;;;;14.00;1.00;;;;;;2244153;61;1037;-87
2021/04/19 07:42:11;305505.00;1.02;527.38;0.00;0.00;0.62;;;;;14.20;1.00;;;;;;2244108;62;1924;-88
2021/04/19 07:44:41;252532.00;0.84;436.31;0.00;0.00;0.62;;;;;14.10;1.00;;;;;;2244185;62;963;-88
2021/04/19 07:47:25;111276.00;0.37;193.03;0.00;0.00;0.62;;;;;13.80;1.00;;;;;;2242294;61;981;-87
2021/04/19 07:49:57;31653.00;0.11;55.44;0.00;0.00;0.62;;;;;13.00;1.00;;;;;;2251890;61;1393;-87
2021/04/19 07:52:24;96124.00;0.32;166.88;0.00;0.00;0.62;;;;;13.00;1.00;;;;;;2254764;61;1423;-87
2021/04/19 07:55:09;23519.00;0.08;41.36;0.00;0.00;0.62;;;;;13.10;1.00;;;;;;2256652;61;951;-87
2021/04/19 07:57:37;129772.00;0.43;224.94;0.00;0.00;0.62;;;;;12.90;1.00;;;;;;2251930;61;1010;-86
2021/04/19 08:00:06;137215.00;0.46;237.77;0.00;0.00;0.62;;;;;12.50;1.00;;;;;;2251956;61;972;-87
2021/04/19 08:02:32;515896.00;1.72;889.20;111955.00;0.37;194.20;;;;;12.40;1.00;;;;;;2251846;61;2015;-86
2021/04/19 08:05:00;133188.00;0.44;230.83;0.00;0.00;0.62;;;;;12.50;1.00;;;;;;2249602;61;1055;-87
2021/04/19 08:07:28;71263.00;0.24;123.94;0.00;0.00;0.62;;;;;12.50;1.00;;;;;;2249273;61;991;-87
2021/04/19 08:09:57;285537.00;0.95;493.06;40626.00;0.14;70.97;;;;;12.40;1.00;;;;;;2252620;61;966;-85
2021/04/19 08:12:37;42051.00;0.14;73.44;0.00;0.00;0.62;;;;;12.10;1.00;;;;;;2249270;61;1324;-85
2021/04/19 08:15:07;191068.00;0.64;330.55;33975.00;0.11;59.46;;;;;12.00;1.00;;;;;;2245695;61;953;-85
2021/04/19 08:17:34;109854.00;0.37;190.58;0.00;0.00;0.62;;;;;12.30;1.00;;;;;;2248680;61;1112;-85
2021/04/19 08:20:05;83826.00;0.28;145.65;0.00;0.00;0.62;;;;;12.30;1.00;;;;;;2248609;61;1538;-86
2021/04/19 08:22:32;72034.00;0.24;125.28;0.00;0.00;0.62;;;;;12.30;1.00;;;;;;2249733;61;1936;-85
2021/04/19 08:25:20;49080.00;0.16;85.60;0.00;0.00;0.62;;;;;12.00;1.00;;;;;;2249299;61;1039;-87
2021/04/19 08:27:59;34042.00;0.11;59.58;0.00;0.00;0.62;;;;;12.70;1.00;;;;;;2242035;61;1128;-86
2021/04/19 08:30:26;129230.00;0.43;224.00;0.00;0.00;0.62;;;;;12.70;1.00;;;;;;2248598;61;1412;-85
2021/04/19 08:32:57;302785.00;1.01;522.71;58587.00;0.20;102.03;;;;;12.80;1.00;;;;;;2243562;61;977;-86
2021/04/19 08:35:25;122418.00;0.41;212.25;0.00;0.00;0.62;;;;;12.70;1.00;;;;;;2249301;61;1004;-86
2021/04/19 08:37:52;193003.00;0.64;333.88;53772.00;0.18;93.71;;;;;12.90;1.00;;;;;;2245919;61;1134;-86
2021/04/19 08:40:20;93706.00;0.31;162.71;0.00;0.00;0.62;;;;;12.80;1.00;;;;;;2252569;61;1343;-86
2021/04/19 08:42:48;88403.00;0.29;153.55;0.00;0.00;0.62;;;;;12.60;1.00;;;;;;2252551;61;1046;-86
2021/04/19 08:45:16;131734.00;0.44;228.32;0.00;0.00;0.62;;;;;12.60;1.00;;;;;;2252514;61;1091;-87
2021/04/19 08:47:44;163666.00;0.55;283.36;28925.00;0.10;50.72;;;;;12.60;1.00;;;;;;2252510;61;1010;-86
2021/04/19 08:50:16;0.00;0.00;0.62;0.00;0.00;0.62;;;;;13.20;1.00;;;;;;2252454;61;1416;-85
2021/04/19 08:52:43;111183.00;0.37;192.87;0.00;0.00;0.62;;;;;13.50;1.00;;;;;;2252525;61;1140;-87
2021/04/19 08:55:13;102794.00;0.34;178.39;0.00;0.00;0.62;;;;;13.40;1.00;;;;;;2252502;61;1048;-87
2021/04/19 08:57:42;44447.00;0.15;77.58;0.00;0.00;0.62;;;;;13.50;1.00;;;;;;2252509;61;1321;-87
2021/04/19 09:00:12;87411.00;0.29;151.84;0.00;0.00;0.62;;;;;13.30;1.00;;;;;;2252431;61;1318;-86
2021/04/19 09:02:39;248140.00;0.83;428.75;33512.00;0.11;58.66;;;;;13.30;1.00;;;;;;2252324;61;1962;-86
2021/04/19 09:05:09;227759.00;0.76;393.69;0.00;0.00;0.62;;;;;13.00;1.00;;;;;;2262132;61;1062;-86
2021/04/19 09:07:38;48461.00;0.16;84.52;0.00;0.00;0.62;;;;;13.10;1.00;;;;;;2264909;61;1114;-87
2021/04/19 09:10:06;33363.00;0.11;58.40;0.00;0.00;0.62;;;;;13.00;1.00;;;;;;2264840;61;1075;-86
2021/04/19 09:12:33;24813.00;0.08;43.60;0.00;0.00;0.62;;;;;13.10;1.00;;;;;;2260352;61;1144;-85
2021/04/19 09:15:29;116552.00;0.39;202.13;0.00;0.00;0.62;;;;;13.40;1.00;;;;;;2260350;61;1782;-87
2021/04/19 09:18:06;292345.00;0.97;504.76;0.00;0.00;0.62;;;;;13.40;1.00;;;;;;2258921;61;1417;-86
2021/04/19 09:20:44;141843.00;0.47;245.75;0.00;0.00;0.62;;;;;13.80;1.00;;;;;;2260312;61;1916;-87
2021/04/19 09:23:22;87978.00;0.29;152.82;0.00;0.00;0.62;;;;;14.10;1.00;;;;;;2260332;61;1122;-87
2021/04/19 09:25:48;51408.00;0.17;89.62;0.00;0.00;0.62;;;;;14.50;1.00;;;;;;2260324;61;1571;-87
2021/04/19 09:28:35;268700.00;0.90;464.11;10611.00;0.04;19.01;;;;;14.50;1.00;;;;;;2260405;61;1042;-86
2021/04/19 09:31:02;0.00;0.00;0.62;0.00;0.00;0.62;;;;;14.30;1.00;;;;;;2256646;61;1479;-87
2021/04/19 09:33:29;37328.00;0.12;65.27;0.00;0.00;0.62;;;;;14.20;1.00;;;;;;2261059;61;974;-86
2021/04/19 09:35:55;181388.00;0.60;313.88;0.00;0.00;0.62;;;;;14.30;1.00;;;;;;2264850;61;955;-88
2021/04/19 09:38:49;334059.00;1.11;576.46;0.00;0.00;0.62;;;;;14.30;1.00;;;;;;2264760;61;1640;-87
2021/04/19 09:41:17;239119.00;0.80;413.24;0.00;0.00;0.62;;;;;14.30;1.00;;;;;;2264746;61;1997;-88
2021/04/19 09:43:46;111893.00;0.37;194.10;0.00;0.00;0.62;;;;;14.60;1.00;;;;;;2264783;61;1226;-87
2021/04/19 09:46:32;117918.00;0.39;204.49;0.00;0.00;0.62;;;;;14.60;1.00;;;;;;2264793;61;1315;-86
2021/04/19 09:49:04;0.00;0.00;0.62;0.00;0.00;0.62;;;;;14.70;1.00;;;;;;2264778;61;1249;-87
2021/04/19 09:51:34;83070.00;0.28;144.34;0.00;0.00;0.62;;;;;14.80;1.00;;;;;;2264747;61;1333;-88
2021/04/19 09:54:04;224564.00;0.75;388.20;0.00;0.00;0.62;;;;;15.00;1.00;;;;;;2264698;61;1018;-87
2021/04/19 09:56:34;349109.00;1.16;602.33;56200.00;0.19;97.91;;;;;14.80;1.00;;;;;;2264635;61;1092;-87
2021/04/19 09:59:01;43086.00;0.14;75.23;0.00;0.00;0.62;;;;;14.90;1.00;;;;;;2264765;61;1112;-88
2021/04/19 10:01:30;53723.00;0.18;93.62;0.00;0.00;0.62;;;;;14.90;1.00;;;;;;2260945;61;1911;-88
2021/04/19 10:03:58;252053.00;0.84;435.48;60937.00;0.20;106.10;;;;;15.10;1.00;;;;;;2264768;61;1030;-87
2021/04/19 10:06:29;217665.00;0.73;376.33;6076.00;0.02;11.15;;;;;15.00;1.00;;;;;;2264762;61;1001;-86